Atlantic - Newfoundland: Past 24 Hour Conditions

 

La Scie

07:30 AM NDT 23 September 2014
This table is a summary of hourly weather conditions for the past 24 hours.
Date / Time
(NDT)
Wind(knots) Conditions Visibility(km) Pressure(kPa) Air tempC) Relative humidity(%) Dew pointC) Humidex
23 September 2014
7:30 17 gust 29 N/A N/A 99.9 13 77 9 *
6:30 19 gust 32 N/A N/A 99.8 14 77 10 *
5:30 14 gust 26 N/A N/A 99.8 15 81 12 *
4:30 13 gust 26 N/A N/A 99.7 16 93 14 *
3:30 12 gust 22 N/A N/A 99.7 16 94 15 *
2:30 14 gust 21 N/A N/A 99.7 16 94 15 *
1:30 11 gust 18 N/A N/A 99.7 17 92 15 *
0:30 14 gust 23 N/A N/A 99.7 17 96 17 *
22 September 2014
23:30 11 gust 18 N/A N/A 99.8 18 96 17 *
22:30 9 gust 24 N/A N/A 99.7 18 95 17 *
21:30 6 gust 15 N/A N/A 99.7 18 96 17 *
20:30 11 gust 20 N/A N/A 99.7 19 100 19 *
19:30 7 N/A N/A 99.5 19 100 19 *
18:30 15 N/A N/A 99.4 20 100 20 *
17:30 16 gust 35 N/A N/A 99.2 20 100 20 28
16:30 19 gust 35 N/A N/A 99.3 19 100 19 *
15:30 18 gust 33 N/A N/A 99.4 18 97 18 *
14:30 16 gust 33 N/A N/A 99.7 18 94 17 *
13:30 18 gust 29 N/A N/A 99.9 17 95 16 *
12:30 17 gust 31 N/A N/A 100.2 17 94 16 *
11:30 16 gust 24 N/A N/A 100.4 16 92 15 *
10:30 17 gust 26 N/A N/A 100.6 17 99 16 *
9:30 12 gust 32 N/A N/A 100.9 18 100 18 *
8:30 11 gust 21 N/A N/A 101.0 17 100 17 *
7:30 10 gust 18 N/A N/A 101.1 16 96 16 *
 
Map of Atlantic - Newfoundland marine weather areas Southwestern Grand Banks - 44138 Banquereau - 44139 Tail of the Bank - 44140 Nickerson Bank - 44251 Northeast Burgeo Bank - 44255 Blanc-Sablon Airport Cap Whittle Chevery Natashquan Airport Heath Point Miscou Island Grand Étang Ingonish Beach North Mountain St.Paul Island J.A. Douglas McCurdy Sydney Airport Charlottetown Airport East Point North Cape Argentia Bonavista Burgeo Cape Race Corner Brook Daniel's Harbour Englee Ferolle Point La Scie Port aux Basques Rocky Harbour Sagona Island St. Anthony Airport St. John's Int'l Airport St. Lawrence Stephenville Airport Twillingate Winterland Wreckhouse Cartwright Airport Mary's Harbour Grates Cove Pool's Island Marticot Island Long Pond Îles de la Madeleine Airport
Legend: buoyBuoy land stationLand Station